Terminal Aerodrome Forecast
Issued by NWS

Home | Current Version | Previous Version | Graphics & Text | Print | Product List | Glossary On
Versions: 1 2 3 4 5 6 7 8 9 10 11 12 13 14 15 16 17 18 19 20 21 22 23 24 25
000
FTUS43 KLOT 170300 AAA
TAFDPA
TAF AMD
KDPA 170300Z 1703/1724 29007KT P6SM FEW035
     FM170900 26006KT P6SM BKN180
     FM171600 25012G18KT P6SM BKN070
     FM172100 24016G24KT P6SM SCT150 BKN250=

USA.gov is the U.S. government's official web portal to all federal, state and local government web resources and services.